Time;durP1;ratioP1;P1;durP2;ratioP2;P2;SDS_P1;SDS_P2;PMS_P1;PMS_P2;Temp;Humidity;BMP_temperature;BMP_pressure;BME280_temperature;BME280_humidity;BME280_pressure;Samples;Min_cycle;Max_cycle;Signal;HPM_P1;HPM_P2
2023/07/26 00:01:46;;;;;;;6.30;2.07;;;16.70;99.90;;;;;;5010960;28;20210;-79
2023/07/26 00:04:12;;;;;;;4.60;1.40;;;16.70;99.90;;;;;;5011663;28;20194;-79
2023/07/26 00:06:38;;;;;;;3.10;1.10;;;16.80;99.90;;;;;;5012809;28;20209;-79
2023/07/26 00:09:07;;;;;;;5.70;1.10;;;16.80;99.90;;;;;;5010401;28;20182;-76
2023/07/26 00:11:34;;;;;;;3.13;0.80;;;16.90;99.90;;;;;;5011404;28;20184;-79
2023/07/26 00:13:59;;;;;;;3.60;1.10;;;16.90;99.90;;;;;;5011073;28;20625;-78
2023/07/26 00:16:25;;;;;;;2.87;0.90;;;16.90;99.90;;;;;;5011441;28;20664;-79
2023/07/26 00:18:50;;;;;;;3.83;1.37;;;16.90;99.90;;;;;;5011826;28;20652;-79
2023/07/26 00:21:16;;;;;;;3.57;1.10;;;17.00;99.90;;;;;;5011016;28;20178;-79
2023/07/26 00:23:42;;;;;;;2.53;0.90;;;17.00;99.90;;;;;;5012145;28;20178;-79
2023/07/26 00:26:07;;;;;;;2.13;1.17;;;17.00;99.90;;;;;;5012237;28;20260;-79
2023/07/26 00:28:33;;;;;;;3.33;1.20;;;17.00;99.90;;;;;;5010210;28;20174;-79
2023/07/26 00:30:59;;;;;;;3.20;2.13;;;17.10;99.90;;;;;;5027493;28;20213;-79
2023/07/26 00:33:24;;;;;;;2.53;0.90;;;17.10;99.90;;;;;;5010623;28;20178;-79
2023/07/26 00:35:50;;;;;;;2.33;0.77;;;17.10;99.90;;;;;;5010651;28;20202;-79
2023/07/26 00:38:16;;;;;;;3.00;0.90;;;17.10;99.90;;;;;;5010436;28;20197;-79
2023/07/26 00:40:41;;;;;;;1.70;0.77;;;17.10;99.90;;;;;;5010195;28;20185;-79
2023/07/26 00:43:07;;;;;;;2.47;1.00;;;17.10;99.90;;;;;;4994404;28;20186;-79
2023/07/26 00:45:37;;;;;;;2.70;0.90;;;17.10;99.90;;;;;;5011732;28;20277;-79
2023/07/26 00:48:03;;;;;;;3.00;1.00;;;17.20;99.90;;;;;;5010160;28;20170;-79
2023/07/26 00:50:29;;;;;;;2.80;1.23;;;17.20;99.90;;;;;;4994225;28;20593;-79
2023/07/26 00:52:54;;;;;;;2.17;0.83;;;17.20;99.90;;;;;;5010710;28;21183;-79
2023/07/26 00:55:20;;;;;;;2.80;0.90;;;17.20;99.90;;;;;;5026591;28;20194;-79
2023/07/26 00:57:47;;;;;;;1.70;0.80;;;17.20;99.90;;;;;;5010119;28;20701;-79
2023/07/26 01:00:14;;;;;;;2.70;0.90;;;17.30;99.90;;;;;;5009426;28;20174;-76
2023/07/26 01:02:40;;;;;;;2.53;0.83;;;17.30;99.90;;;;;;5009910;28;20592;-76
2023/07/26 01:05:07;;;;;;;4.27;1.00;;;17.30;99.90;;;;;;5009644;28;20604;-76
2023/07/26 01:07:47;;;;;;;2.33;0.80;;;17.30;99.90;;;;;;5026607;28;20674;-76
2023/07/26 01:10:18;;;;;;;1.60;0.80;;;17.30;99.90;;;;;;5010856;28;21026;-76
2023/07/26 01:13:20;;;;;;;3.60;0.83;;;17.30;99.90;;;;;;5010941;28;20600;-79
2023/07/26 01:15:49;;;;;;;2.27;0.80;;;17.30;99.90;;;;;;4974285;28;20625;-79
2023/07/26 01:18:16;;;;;;;3.30;0.90;;;17.40;99.90;;;;;;5042971;28;21072;-79
2023/07/26 01:20:43;;;;;;;1.80;0.90;;;17.40;99.90;;;;;;5030083;28;20642;-79
2023/07/26 01:23:09;;;;;;;3.60;0.97;;;17.40;99.90;;;;;;5029554;28;20688;-79
2023/07/26 01:25:38;;;;;;;3.40;0.80;;;17.40;99.90;;;;;;5046449;28;20628;-79
2023/07/26 01:28:04;;;;;;;2.60;0.90;;;17.40;99.90;;;;;;5028858;28;20646;-79
2023/07/26 01:30:32;;;;;;;3.03;1.37;;;17.40;99.90;;;;;;5029794;28;20584;-79
2023/07/26 01:33:01;;;;;;;2.10;0.80;;;17.40;99.90;;;;;;5029509;28;20564;-79
2023/07/26 01:35:28;;;;;;;2.33;0.70;;;17.40;99.90;;;;;;5029611;28;20635;-76
2023/07/26 01:37:55;;;;;;;2.23;0.87;;;17.40;99.90;;;;;;5029134;28;20680;-76
2023/07/26 01:40:22;;;;;;;1.93;0.80;;;17.40;99.90;;;;;;5012549;28;20592;-76
2023/07/26 01:42:49;;;;;;;3.20;1.00;;;17.40;99.90;;;;;;5045163;28;20631;-76
2023/07/26 01:45:15;;;;;;;2.67;0.90;;;17.40;99.90;;;;;;5029072;28;20770;-76
2023/07/26 01:47:41;;;;;;;2.20;1.00;;;17.40;99.90;;;;;;5012636;28;20694;-76
2023/07/26 01:50:08;;;;;;;2.00;0.90;;;17.40;99.90;;;;;;5029014;28;20568;-76
2023/07/26 01:52:34;;;;;;;2.23;0.90;;;17.40;99.90;;;;;;5029540;28;20180;-75
2023/07/26 01:55:00;;;;;;;1.73;0.80;;;17.40;99.90;;;;;;5030005;28;20608;-75
2023/07/26 01:57:27;;;;;;;3.50;1.00;;;17.40;99.90;;;;;;5029930;28;20184;-75
2023/07/26 01:59:53;;;;;;;1.73;0.70;;;17.40;99.90;;;;;;5046294;28;20580;-75
2023/07/26 02:02:19;;;;;;;2.43;0.90;;;17.50;99.90;;;;;;5046553;28;20576;-75
2023/07/26 02:04:46;;;;;;;2.23;0.90;;;17.50;99.90;;;;;;5046460;28;20575;-75
2023/07/26 02:07:11;;;;;;;2.63;0.90;;;17.40;99.90;;;;;;5046450;28;20636;-75
2023/07/26 02:09:37;;;;;;;1.70;0.80;;;17.40;99.90;;;;;;5046221;28;21187;-75
2023/07/26 02:12:04;;;;;;;2.33;0.80;;;17.40;99.90;;;;;;5013197;28;20209;-75
2023/07/26 02:14:30;;;;;;;2.57;0.83;;;17.40;99.90;;;;;;5032772;28;20678;-75
2023/07/26 02:16:55;;;;;;;4.37;1.23;;;17.40;99.90;;;;;;5050285;28;20632;-75
2023/07/26 02:19:21;;;;;;;3.10;0.97;;;17.40;99.90;;;;;;5016818;28;20588;-75
2023/07/26 02:21:47;;;;;;;2.67;0.90;;;17.40;99.90;;;;;;5050271;28;20959;-75
2023/07/26 02:24:13;;;;;;;2.37;0.93;;;17.40;99.90;;;;;;5049677;28;20200;-75
2023/07/26 02:26:39;;;;;;;3.00;1.00;;;17.30;99.90;;;;;;5050267;28;21183;-75
2023/07/26 02:29:05;;;;;;;1.97;0.87;;;17.30;99.90;;;;;;5050211;28;20541;-75
2023/07/26 02:31:32;;;;;;;3.53;0.80;;;17.30;99.90;;;;;;5049742;28;20256;-75
2023/07/26 02:33:57;;;;;;;2.90;1.00;;;17.30;99.90;;;;;;5050076;28;20639;-75
2023/07/26 02:36:24;;;;;;;2.70;1.10;;;17.30;99.90;;;;;;5032945;28;20207;-75
2023/07/26 02:38:50;;;;;;;3.50;1.00;;;17.30;99.90;;;;;;5033219;28;20177;-75
2023/07/26 02:41:16;;;;;;;2.47;1.00;;;17.30;99.90;;;;;;5032831;28;20924;-75
2023/07/26 02:43:42;;;;;;;2.03;1.30;;;17.30;99.90;;;;;;5049777;28;20693;-75
2023/07/26 02:46:08;;;;;;;4.33;1.20;;;17.20;99.90;;;;;;5016470;28;20738;-75
2023/07/26 02:48:34;;;;;;;2.23;1.00;;;17.20;99.90;;;;;;5049716;28;20174;-75
2023/07/26 02:51:00;;;;;;;2.83;1.10;;;17.20;99.90;;;;;;5032633;28;20599;-75
2023/07/26 02:53:26;;;;;;;2.53;1.10;;;17.20;99.90;;;;;;5033050;28;20177;-75
2023/07/26 02:55:52;;;;;;;3.87;1.17;;;17.20;99.90;;;;;;5032737;28;20967;-75
2023/07/26 02:58:18;;;;;;;2.10;0.90;;;17.20;99.90;;;;;;5032997;28;20200;-75
2023/07/26 03:00:43;;;;;;;2.60;1.40;;;17.20;99.90;;;;;;5049486;28;20197;-75
2023/07/26 03:03:09;;;;;;;5.30;1.23;;;17.20;99.90;;;;;;5032588;28;20181;-75
2023/07/26 03:05:38;;;;;;;2.83;1.10;;;17.10;99.90;;;;;;5049241;28;20215;-75
2023/07/26 03:08:04;;;;;;;2.07;1.00;;;17.10;99.90;;;;;;5049150;28;20174;-75
2023/07/26 03:10:31;;;;;;;3.10;1.13;;;17.10;99.90;;;;;;5016026;28;20920;-75
2023/07/26 03:12:57;;;;;;;5.17;1.20;;;17.10;99.90;;;;;;5049169;28;20638;-75
2023/07/26 03:15:23;;;;;;;2.40;1.10;;;17.10;99.90;;;;;;5049307;28;21175;-75
2023/07/26 03:17:48;;;;;;;2.47;1.20;;;17.10;99.90;;;;;;5049078;28;20888;-75
2023/07/26 03:20:14;;;;;;;4.23;1.30;;;17.10;99.90;;;;;;5032990;28;20174;-77
2023/07/26 03:22:40;;;;;;;3.00;1.07;;;17.10;99.90;;;;;;5049124;28;20256;-78
2023/07/26 03:25:06;;;;;;;4.87;1.33;;;17.10;99.90;;;;;;4998743;28;20614;-77
2023/07/26 03:27:31;;;;;;;2.10;1.23;;;17.10;99.90;;;;;;5015720;28;20309;-77
2023/07/26 03:29:57;;;;;;;4.97;1.40;;;17.00;99.90;;;;;;5049334;28;21023;-77
2023/07/26 03:32:23;;;;;;;2.60;1.30;;;17.00;99.90;;;;;;5049266;28;20170;-75
2023/07/26 03:34:49;;;;;;;2.23;1.37;;;17.00;99.90;;;;;;5031944;28;20170;-75
2023/07/26 03:37:14;;;;;;;3.70;1.80;;;17.00;99.90;;;;;;5032410;28;20642;-75
2023/07/26 03:39:40;;;;;;;3.13;1.17;;;17.00;99.90;;;;;;5032118;28;20260;-77
2023/07/26 03:42:06;;;;;;;2.67;1.10;;;17.00;99.90;;;;;;5032685;28;20178;-77
2023/07/26 03:44:31;;;;;;;3.40;1.33;;;17.00;99.90;;;;;;5015494;28;20583;-75
2023/07/26 03:46:57;;;;;;;3.10;1.30;;;17.00;99.90;;;;;;5033349;28;20664;-75
2023/07/26 03:49:23;;;;;;;2.73;1.33;;;17.00;99.90;;;;;;5048445;28;20295;-77
2023/07/26 03:51:49;;;;;;;2.00;1.40;;;17.00;99.90;;;;;;5048928;28;20215;-77
2023/07/26 03:54:14;;;;;;;2.27;1.50;;;17.00;99.90;;;;;;5048773;28;20576;-77
2023/07/26 03:56:40;;;;;;;2.10;1.50;;;17.00;99.90;;;;;;5033317;28;20185;-77
2023/07/26 03:59:06;;;;;;;2.70;1.30;;;17.00;99.90;;;;;;5048501;28;20217;-77
2023/07/26 04:01:31;;;;;;;2.20;1.40;;;17.00;99.90;;;;;;5031841;28;20212;-77
2023/07/26 04:03:57;;;;;;;2.20;1.40;;;17.00;99.90;;;;;;5032091;28;20251;-77
2023/07/26 04:06:23;;;;;;;2.33;1.27;;;17.00;99.90;;;;;;5048026;28;20206;-77
2023/07/26 04:08:48;;;;;;;2.70;1.30;;;17.00;99.90;;;;;;5048423;28;20529;-77
2023/07/26 04:11:14;;;;;;;2.00;1.40;;;17.00;99.90;;;;;;5031449;28;20590;-77
2023/07/26 04:13:40;;;;;;;2.13;1.10;;;17.00;99.90;;;;;;5031895;28;20612;-77
2023/07/26 04:16:32;;;;;;;2.90;1.37;;;17.00;99.90;;;;;;5031192;28;20201;-77
2023/07/26 04:18:57;;;;;;;2.40;1.30;;;17.00;99.90;;;;;;5030743;28;20564;-77
2023/07/26 04:21:23;;;;;;;3.13;1.27;;;17.10;99.90;;;;;;5032513;28;20565;-77
2023/07/26 04:23:49;;;;;;;2.47;1.63;;;17.00;99.90;;;;;;5032750;28;20173;-77
2023/07/26 04:26:14;;;;;;;2.03;1.20;;;17.00;99.90;;;;;;5032112;28;20201;-77
2023/07/26 04:28:40;;;;;;;3.90;1.23;;;17.00;99.90;;;;;;5031304;28;20174;-77
2023/07/26 04:31:06;;;;;;;2.37;1.20;;;17.00;99.90;;;;;;5031043;28;20670;-77
2023/07/26 04:33:32;;;;;;;2.23;1.30;;;17.00;99.90;;;;;;5032601;28;20611;-77
2023/07/26 04:35:57;;;;;;;3.57;1.27;;;17.10;99.90;;;;;;5030675;28;20193;-77
2023/07/26 04:38:25;;;;;;;1.60;1.17;;;17.10;99.90;;;;;;5031111;28;20268;-77
2023/07/26 04:40:51;;;;;;;2.47;1.37;;;17.10;99.90;;;;;;5032347;28;20931;-77
2023/07/26 04:43:20;;;;;;;4.23;1.73;;;17.10;99.90;;;;;;5031100;28;20600;-77
2023/07/26 04:45:50;;;;;;;2.30;1.00;;;17.10;99.90;;;;;;5031000;28;20654;-77
2023/07/26 04:48:17;;;;;;;2.97;0.90;;;17.10;99.90;;;;;;5030827;28;20588;-77
2023/07/26 04:50:47;;;;;;;2.37;0.90;;;17.10;99.90;;;;;;5032160;28;20584;-77
2023/07/26 04:53:12;;;;;;;1.53;0.80;;;17.10;99.90;;;;;;5030534;28;20622;-77
2023/07/26 04:55:46;;;;;;;2.33;0.60;;;17.10;99.90;;;;;;5032025;28;21199;-77
2023/07/26 04:58:12;;;;;;;2.03;0.67;;;17.10;99.90;;;;;;5030571;28;20585;-77
2023/07/26 05:00:39;;;;;;;2.80;0.70;;;17.10;99.90;;;;;;5032024;28;20612;-77
2023/07/26 05:03:05;;;;;;;1.90;0.80;;;17.10;99.90;;;;;;5030614;28;20615;-77
2023/07/26 05:05:32;;;;;;;1.90;0.87;;;17.10;99.90;;;;;;5047437;28;20968;-77
2023/07/26 05:07:58;;;;;;;2.27;0.80;;;17.10;99.90;;;;;;5030546;28;20623;-77
2023/07/26 05:10:25;;;;;;;2.70;0.70;;;17.10;99.90;;;;;;5031054;28;20592;-77
2023/07/26 05:12:51;;;;;;;1.70;0.80;;;17.10;99.90;;;;;;5047434;28;20236;-77
2023/07/26 05:15:17;;;;;;;2.70;0.87;;;17.10;99.90;;;;;;5047466;28;20604;-77
2023/07/26 05:17:44;;;;;;;1.50;0.80;;;17.10;99.90;;;;;;5031899;28;21052;-77
2023/07/26 05:20:10;;;;;;;1.97;0.90;;;17.10;99.90;;;;;;5030533;28;20593;-77
2023/07/26 05:22:36;;;;;;;1.67;0.80;;;17.20;99.90;;;;;;5031985;28;20933;-77
2023/07/26 05:25:02;;;;;;;1.60;0.87;;;17.20;99.90;;;;;;5031463;28;20620;-77
2023/07/26 05:27:28;;;;;;;1.70;0.80;;;17.30;99.90;;;;;;5014189;28;20639;-77
2023/07/26 05:29:54;;;;;;;1.30;0.70;;;17.30;99.90;;;;;;5030388;28;20256;-77
2023/07/26 05:32:20;;;;;;;2.30;0.90;;;17.30;99.90;;;;;;5030914;28;20176;-77
2023/07/26 05:34:46;;;;;;;2.53;0.70;;;17.40;99.90;;;;;;5031480;28;20618;-77
2023/07/26 05:37:11;;;;;;;1.37;0.60;;;17.50;99.90;;;;;;5047376;28;20584;-77
2023/07/26 05:39:37;;;;;;;2.30;0.80;;;17.50;99.90;;;;;;5046876;28;20185;-77
2023/07/26 05:42:03;;;;;;;2.70;1.00;;;17.60;99.90;;;;;;5030501;28;20644;-77
2023/07/26 05:44:28;;;;;;;1.70;0.90;;;17.70;99.90;;;;;;5030610;28;20178;-77
2023/07/26 05:46:54;;;;;;;4.53;0.90;;;17.80;99.90;;;;;;5030956;28;20918;-77
2023/07/26 05:49:20;;;;;;;1.83;1.10;;;17.80;99.90;;;;;;5046388;28;20231;-77
2023/07/26 05:51:45;;;;;;;1.90;1.10;;;17.90;99.90;;;;;;5031768;28;20176;-77
2023/07/26 05:54:11;;;;;;;3.60;1.30;;;18.10;99.90;;;;;;5032031;28;20173;-77
2023/07/26 05:56:37;;;;;;;2.97;1.00;;;18.20;99.90;;;;;;5030076;28;20247;-77
2023/07/26 05:59:03;;;;;;;2.60;1.20;;;18.30;99.90;;;;;;5031886;28;20197;-77
2023/07/26 06:01:28;;;;;;;1.83;0.97;;;18.40;99.90;;;;;;5030069;28;20209;-77
2023/07/26 06:03:54;;;;;;;2.43;1.30;;;18.50;99.90;;;;;;5030413;28;20534;-77
2023/07/26 06:06:20;;;;;;;3.20;1.50;;;18.60;99.90;;;;;;5029856;28;20295;-77
2023/07/26 06:08:45;;;;;;;2.93;1.33;;;18.70;99.90;;;;;;5030263;28;20857;-75
2023/07/26 06:11:11;;;;;;;1.80;0.97;;;18.80;99.90;;;;;;5029680;28;20220;-75
2023/07/26 06:13:37;;;;;;;2.27;1.40;;;18.90;99.90;;;;;;5031136;28;20173;-77
2023/07/26 06:16:03;;;;;;;2.33;1.10;;;19.00;99.90;;;;;;5032856;28;20194;-77
2023/07/26 06:18:28;;;;;;;3.60;1.40;;;19.10;99.90;;;;;;5033081;28;20581;-77
2023/07/26 06:20:54;;;;;;;2.83;1.13;;;19.20;99.90;;;;;;5031535;28;20180;-77
2023/07/26 06:23:20;;;;;;;4.63;1.53;;;19.20;99.90;;;;;;5047397;28;20216;-77
2023/07/26 06:25:46;;;;;;;6.60;1.30;;;19.30;99.90;;;;;;5031470;28;20255;-77
2023/07/26 06:28:12;;;;;;;2.20;1.13;;;19.50;99.90;;;;;;5046459;28;20651;-77
2023/07/26 06:30:38;;;;;;;3.23;1.40;;;19.90;99.90;;;;;;5046737;28;20176;-77
2023/07/26 06:33:04;;;;;;;2.43;1.17;;;20.50;99.90;;;;;;5031013;28;20177;-77
2023/07/26 06:35:29;;;;;;;3.03;1.30;;;21.30;99.90;;;;;;5030878;28;20608;-75
2023/07/26 06:37:55;;;;;;;1.90;1.00;;;21.80;99.90;;;;;;5046142;28;20181;-75
2023/07/26 06:40:21;;;;;;;4.30;1.30;;;22.30;99.90;;;;;;5031013;28;20272;-75
2023/07/26 06:42:46;;;;;;;4.30;1.17;;;22.70;99.90;;;;;;5029375;28;20257;-76
2023/07/26 06:45:12;;;;;;;2.67;1.10;;;22.90;99.90;;;;;;5030820;28;20193;-75
2023/07/26 06:47:38;;;;;;;2.83;1.00;;;23.10;99.90;;;;;;5029173;28;20197;-75
2023/07/26 06:50:04;;;;;;;7.40;1.50;;;23.20;99.90;;;;;;5029620;28;20513;-76
2023/07/26 06:52:33;;;;;;;2.53;1.37;;;23.30;99.90;;;;;;5030769;28;20166;-76
2023/07/26 06:54:58;;;;;;;4.90;1.70;;;23.30;99.90;;;;;;5029436;28;20650;-76
2023/07/26 06:57:24;;;;;;;1.93;1.00;;;23.40;99.90;;;;;;5030717;28;20577;-76
2023/07/26 06:59:50;;;;;;;4.40;1.10;;;23.40;99.90;;;;;;5032417;28;20188;-76
2023/07/26 07:02:16;;;;;;;6.20;1.40;;;23.30;99.90;;;;;;5033290;28;20185;-77
2023/07/26 07:04:42;;;;;;;1.97;1.27;;;23.40;99.90;;;;;;5032587;28;20611;-77
2023/07/26 07:07:08;;;;;;;3.63;1.27;;;23.80;99.90;;;;;;5034257;28;20259;-77
2023/07/26 07:09:34;;;;;;;3.93;1.40;;;24.20;99.90;;;;;;5049382;28;20592;-77
2023/07/26 07:11:59;;;;;;;3.93;1.10;;;24.70;99.90;;;;;;5033341;28;20174;-76
2023/07/26 07:14:25;;;;;;;2.47;0.90;;;25.20;99.90;;;;;;5033990;28;20248;-76
2023/07/26 07:16:51;;;;;;;3.20;1.20;;;25.80;99.90;;;;;;5049460;28;20232;-77
2023/07/26 07:19:16;;;;;;;1.97;0.90;;;26.30;99.90;;;;;;5032761;28;20244;-77
2023/07/26 07:21:44;;;;;;;3.60;1.00;;;26.90;99.90;;;;;;5034212;28;20175;-77
2023/07/26 07:24:09;;;;;;;2.10;0.90;;;27.60;99.90;;;;;;5032606;28;20248;-77
2023/07/26 07:26:35;;;;;;;2.93;0.90;;;28.40;99.90;;;;;;5048986;28;20637;-77
2023/07/26 07:29:01;;;;;;;1.67;0.80;;;29.10;99.90;;;;;;5032898;28;20192;-77
2023/07/26 07:31:27;;;;;;;3.90;1.17;;;29.80;99.90;;;;;;5032518;28;20626;-77
2023/07/26 07:33:52;;;;;;;2.73;1.20;;;30.40;99.90;;;;;;5032851;28;20179;-77
2023/07/26 07:36:19;;;;;;;6.33;1.10;;;31.00;99.30;;;;;;5033599;28;20197;-77
2023/07/26 07:38:46;;;;;;;4.63;1.30;;;31.60;98.20;;;;;;5035720;28;20173;-77
2023/07/26 07:41:13;;;;;;;2.30;0.90;;;32.20;97.00;;;;;;5032499;28;20586;-77
2023/07/26 07:43:38;;;;;;;2.00;0.90;;;32.90;95.70;;;;;;5032583;28;20599;-77
2023/07/26 07:46:04;;;;;;;2.73;1.10;;;33.60;94.80;;;;;;5033402;28;20635;-77
2023/07/26 07:48:30;;;;;;;2.20;1.10;;;34.00;92.30;;;;;;5033717;28;20170;-77
2023/07/26 07:50:56;;;;;;;3.87;1.70;;;34.40;91.00;;;;;;5048226;28;21152;-77
2023/07/26 07:53:23;;;;;;;3.00;1.40;;;34.90;89.00;;;;;;5031867;28;20646;-77
2023/07/26 07:55:49;;;;;;;5.83;1.30;;;35.10;85.30;;;;;;5047876;28;20202;-77
2023/07/26 07:58:15;;;;;;;3.20;1.10;;;35.40;82.80;;;;;;5031227;28;20584;-77
2023/07/26 08:00:40;;;;;;;3.13;1.10;;;35.70;81.00;;;;;;5054847;23;20196;-79
2023/07/26 08:03:06;;;;;;;5.07;1.23;;;36.10;79.80;;;;;;5051278;28;20184;-79
2023/07/26 08:05:32;;;;;;;4.07;1.70;;;36.30;76.50;;;;;;5051911;28;20176;-79
2023/07/26 08:07:58;;;;;;;3.00;1.07;;;36.20;72.70;;;;;;5049839;28;20295;-80
2023/07/26 08:10:24;;;;;;;3.63;1.17;;;35.80;69.10;;;;;;5051513;28;20691;-79
2023/07/26 08:12:49;;;;;;;3.00;1.43;;;35.50;67.60;;;;;;5051481;28;20687;-79
2023/07/26 08:15:15;;;;;;;1.70;0.93;;;35.20;65.50;;;;;;5052331;28;20166;-79
2023/07/26 08:17:41;;;;;;;2.30;1.67;;;34.90;66.20;;;;;;5050609;28;20181;-79
2023/07/26 08:20:07;;;;;;;5.30;1.60;;;34.50;64.60;;;;;;5050451;28;20530;-79
2023/07/26 08:22:34;;;;;;;2.67;1.40;;;34.20;64.30;;;;;;5051456;28;20185;-79
2023/07/26 08:24:59;;;;;;;2.53;1.77;;;34.20;65.60;;;;;;5051936;28;20659;-78
2023/07/26 08:27:26;;;;;;;3.23;1.57;;;34.20;65.40;;;;;;5051711;28;20748;-78
2023/07/26 08:29:52;;;;;;;2.67;1.30;;;34.10;64.90;;;;;;5050043;28;20176;-78
2023/07/26 08:32:18;;;;;;;3.47;1.63;;;33.90;63.20;;;;;;5051599;28;20620;-79
2023/07/26 08:34:43;;;;;;;3.60;1.33;;;33.60;63.20;;;;;;5051461;28;20261;-79
2023/07/26 08:37:09;;;;;;;2.67;1.50;;;33.40;61.90;;;;;;5051838;28;20731;-79
2023/07/26 08:39:35;;;;;;;2.40;1.00;;;33.10;61.50;;;;;;5050858;28;20180;-79
2023/07/26 08:42:02;;;;;;;2.87;1.33;;;33.00;62.30;;;;;;5049761;28;20576;-79
2023/07/26 08:44:29;;;;;;;3.30;1.30;;;33.10;62.10;;;;;;5049948;28;20689;-79
2023/07/26 08:46:55;;;;;;;2.17;1.20;;;33.20;63.10;;;;;;5051307;28;20637;-79
2023/07/26 08:49:22;;;;;;;2.60;1.20;;;33.20;62.50;;;;;;5050563;28;20571;-79
2023/07/26 08:51:48;;;;;;;3.80;1.20;;;32.90;61.50;;;;;;5049678;28;20613;-79
2023/07/26 08:54:14;;;;;;;4.23;1.07;;;32.60;60.50;;;;;;5050933;28;20186;-79
2023/07/26 08:56:40;;;;;;;4.00;1.40;;;32.20;59.10;;;;;;5051303;28;20609;-79
2023/07/26 08:59:07;;;;;;;3.30;1.17;;;31.70;58.80;;;;;;5050445;28;20982;-80
2023/07/26 09:01:33;;;;;;;3.53;1.20;;;31.20;58.50;;;;;;5049347;28;20634;-79
2023/07/26 09:03:59;;;;;;;3.43;1.00;;;30.60;58.50;;;;;;5051113;28;20184;-78
2023/07/26 09:06:25;;;;;;;5.97;0.90;;;30.10;58.80;;;;;;5049427;28;20625;-79
2023/07/26 09:08:52;;;;;;;3.00;1.30;;;29.80;59.20;;;;;;5049387;28;20172;-79
2023/07/26 09:11:23;;;;;;;4.23;1.47;;;29.50;59.60;;;;;;5050063;28;20184;-78
2023/07/26 09:14:02;;;;;;;2.33;1.50;;;29.30;59.90;;;;;;5054936;28;20673;-79
2023/07/26 09:16:32;;;;;;;2.43;1.10;;;29.10;59.90;;;;;;5050342;28;20975;-79
2023/07/26 09:19:00;;;;;;;3.80;1.30;;;28.80;59.80;;;;;;5049296;28;21131;-78
2023/07/26 09:21:31;;;;;;;3.27;1.30;;;28.50;60.00;;;;;;5048796;28;20630;-78
2023/07/26 09:23:57;;;;;;;4.30;1.30;;;28.20;60.00;;;;;;5050090;28;20966;-79
2023/07/26 09:26:41;;;;;;;2.50;1.10;;;27.80;60.40;;;;;;5049116;28;20615;-80
2023/07/26 09:29:16;;;;;;;2.17;1.13;;;27.40;60.40;;;;;;5048974;28;20594;-78
2023/07/26 09:31:45;;;;;;;3.33;1.60;;;27.00;60.90;;;;;;5049925;28;20656;-78
2023/07/26 09:34:18;;;;;;;4.07;1.67;;;26.70;61.70;;;;;;5050874;28;20604;-78
2023/07/26 09:36:45;;;;;;;3.50;1.67;;;26.60;62.60;;;;;;5048962;28;20619;-78
2023/07/26 09:39:12;;;;;;;2.87;1.70;;;26.80;64.80;;;;;;5050200;28;20584;-79
2023/07/26 09:41:39;;;;;;;2.30;1.30;;;27.10;65.80;;;;;;5048638;28;20611;-79
2023/07/26 09:44:09;;;;;;;2.47;1.40;;;27.40;66.60;;;;;;5049167;28;20974;-79
2023/07/26 09:46:51;;;;;;;3.13;1.30;;;28.00;67.40;;;;;;5049790;28;21001;-79
2023/07/26 09:49:19;;;;;;;3.07;1.30;;;28.60;66.80;;;;;;5048703;28;20920;-80
2023/07/26 09:51:45;;;;;;;4.60;1.30;;;29.30;66.70;;;;;;5049716;28;20616;-79
2023/07/26 09:54:11;;;;;;;3.33;1.17;;;29.90;66.00;;;;;;5050776;28;20670;-79
2023/07/26 09:56:40;;;;;;;4.80;1.00;;;30.50;65.80;;;;;;5050552;28;20563;-79
2023/07/26 09:59:11;;;;;;;3.53;1.50;;;30.90;63.40;;;;;;5048384;28;20623;-79
2023/07/26 10:01:44;;;;;;;2.37;1.20;;;31.00;61.60;;;;;;5049964;28;20642;-79
2023/07/26 10:04:42;;;;;;;3.57;1.40;;;30.80;60.70;;;;;;5049140;28;20605;-80
2023/07/26 10:07:11;;;;;;;3.40;1.40;;;30.30;60.60;;;;;;5044399;28;20646;-79
2023/07/26 10:09:43;;;;;;;3.67;1.73;;;29.50;59.90;;;;;;5050352;28;20575;-79
2023/07/26 10:12:09;;;;;;;3.70;1.60;;;28.90;60.00;;;;;;5048969;28;20651;-79
2023/07/26 10:14:36;;;;;;;3.30;1.80;;;28.20;60.70;;;;;;5048638;28;20580;-79
2023/07/26 10:17:04;;;;;;;3.00;1.30;;;27.60;61.60;;;;;;5050167;28;20606;-79
2023/07/26 10:19:31;;;;;;;3.20;1.60;;;27.00;63.40;;;;;;5048281;28;20575;-79
2023/07/26 10:21:57;;;;;;;6.00;1.77;;;26.40;63.40;;;;;;5050046;28;20669;-79
2023/07/26 10:24:24;;;;;;;4.20;1.70;;;25.90;64.20;;;;;;5048786;28;21142;-79
2023/07/26 10:26:52;;;;;;;3.23;1.50;;;25.40;65.10;;;;;;5050211;28;20634;-78
2023/07/26 10:29:19;;;;;;;3.43;1.27;;;25.00;65.80;;;;;;5049527;28;20575;-79
2023/07/26 10:31:46;;;;;;;3.00;1.60;;;24.50;66.00;;;;;;5048533;28;20658;-78
2023/07/26 10:34:20;;;;;;;3.07;1.07;;;24.00;66.30;;;;;;5050072;28;20625;-78
2023/07/26 10:36:46;;;;;;;6.07;2.10;;;23.50;67.80;;;;;;5052721;28;20591;-77
2023/07/26 10:39:12;;;;;;;4.93;1.87;;;22.80;67.60;;;;;;5051869;28;20599;-78
2023/07/26 10:41:47;;;;;;;4.97;2.03;;;22.10;68.40;;;;;;5054280;28;21001;-77
2023/07/26 10:44:13;;;;;;;3.03;1.33;;;21.50;72.00;;;;;;5052862;28;20682;-77
2023/07/26 10:46:54;;;;;;;3.30;1.40;;;21.10;74.20;;;;;;5052141;28;20706;-78
2023/07/26 10:49:27;;;;;;;6.63;1.47;;;21.20;81.60;;;;;;5051973;28;20667;-78
2023/07/26 10:51:58;;;;;;;4.40;1.17;;;21.60;87.30;;;;;;5051898;28;20607;-78
2023/07/26 10:54:39;;;;;;;3.00;1.10;;;21.90;88.50;;;;;;5052052;28;20602;-79
2023/07/26 10:57:16;;;;;;;4.70;1.53;;;22.10;90.70;;;;;;5051958;28;20591;-78
2023/07/26 10:59:56;;;;;;;2.20;1.00;;;22.20;90.80;;;;;;5051725;28;20970;-78
2023/07/26 11:02:43;;;;;;;3.97;1.00;;;22.20;90.40;;;;;;5052911;28;21023;-78
2023/07/26 11:05:15;;;;;;;2.17;1.10;;;22.20;90.00;;;;;;5053284;28;20587;-79
2023/07/26 11:08:07;;;;;;;2.40;1.17;;;22.00;89.20;;;;;;5052984;28;20702;-78
2023/07/26 11:10:38;;;;;;;2.97;1.10;;;21.70;89.30;;;;;;5035065;28;20583;-78
2023/07/26 11:13:12;;;;;;;4.40;1.50;;;21.40;89.10;;;;;;5052789;28;20979;-77
2023/07/26 11:15:46;;;;;;;5.40;1.47;;;21.00;90.20;;;;;;5053272;28;20586;-78
2023/07/26 11:18:13;;;;;;;4.33;1.67;;;20.60;91.20;;;;;;5050854;28;20926;-77
2023/07/26 11:20:50;;;;;;;2.80;1.20;;;20.00;91.10;;;;;;5051620;28;20595;-77
2023/07/26 11:23:28;;;;;;;4.47;2.23;;;19.50;92.70;;;;;;5051159;28;20598;-77
2023/07/26 11:25:57;;;;;;;4.40;1.80;;;19.10;93.40;;;;;;5052888;28;21134;-76
2023/07/26 11:28:25;;;;;;;4.23;1.40;;;18.70;93.70;;;;;;5051018;28;20603;-76
2023/07/26 11:30:55;;;;;;;5.27;1.60;;;18.30;95.00;;;;;;5051418;28;20607;-76
2023/07/26 11:33:32;;;;;;;3.13;1.70;;;17.90;96.30;;;;;;5052058;28;20567;-76
2023/07/26 11:35:59;;;;;;;3.70;2.03;;;17.60;97.10;;;;;;5051494;28;20571;-76
2023/07/26 11:38:25;;;;;;;5.37;2.30;;;17.40;97.70;;;;;;5051620;28;20586;-78
2023/07/26 11:40:53;;;;;;;5.43;2.20;;;17.20;99.20;;;;;;5053375;28;20942;-78
2023/07/26 11:43:20;;;;;;;27.17;3.40;;;17.10;99.90;;;;;;5034930;28;20578;-78
2023/07/26 11:45:46;;;;;;;4.10;2.37;;;17.00;99.90;;;;;;5050802;28;20594;-78
2023/07/26 11:48:14;;;;;;;4.37;2.37;;;16.90;99.90;;;;;;5051902;28;21211;-78
2023/07/26 11:50:41;;;;;;;4.13;3.60;;;16.80;99.90;;;;;;5051980;28;20588;-79
2023/07/26 11:53:12;;;;;;;3.83;3.17;;;16.70;99.90;;;;;;5051847;28;20580;-79
2023/07/26 11:55:40;;;;;;;3.80;2.80;;;16.70;99.90;;;;;;5052134;28;20630;-79
2023/07/26 11:58:08;;;;;;;5.17;3.30;;;16.70;99.90;;;;;;5035051;28;20614;-79
2023/07/26 12:00:40;;;;;;;6.67;2.67;;;16.60;99.90;;;;;;5053227;28;20583;-79
2023/07/26 12:03:07;;;;;;;4.63;2.57;;;16.60;99.90;;;;;;5057089;28;20686;-79
2023/07/26 12:05:33;;;;;;;4.57;2.90;;;16.70;99.90;;;;;;5051676;28;21000;-79
2023/07/26 12:08:06;;;;;;;3.57;2.80;;;16.90;99.90;;;;;;5053016;28;21178;-79
2023/07/26 12:10:33;;;;;;;5.37;2.80;;;17.30;99.90;;;;;;5051226;28;20580;-78
2023/07/26 12:13:07;;;;;;;4.00;2.70;;;17.80;99.90;;;;;;5051073;28;20584;-78
2023/07/26 12:16:00;;;;;;;3.93;2.80;;;18.30;99.90;;;;;;5050879;28;20567;-79
2023/07/26 12:18:27;;;;;;;4.17;2.83;;;18.80;99.90;;;;;;5052214;28;20568;-79
2023/07/26 12:21:02;;;;;;;4.07;2.60;;;19.30;99.90;;;;;;5050728;28;20599;-80
2023/07/26 12:23:47;;;;;;;2.77;2.10;;;19.60;99.90;;;;;;5051367;28;20582;-80
2023/07/26 12:26:16;;;;;;;2.77;1.73;;;20.00;99.90;;;;;;5051311;28;20670;-82
2023/07/26 12:28:45;;;;;;;5.00;2.17;;;20.40;99.90;;;;;;5051844;28;20614;-80
2023/07/26 12:31:22;;;;;;;3.20;2.50;;;20.70;99.90;;;;;;5033792;28;20754;-79
2023/07/26 12:34:02;;;;;;;2.70;2.03;;;20.90;99.90;;;;;;5050616;28;20613;-80
2023/07/26 12:36:46;;;;;;;4.70;1.97;;;21.00;99.90;;;;;;5050569;28;20587;-79
2023/07/26 12:39:15;;;;;;;5.93;2.43;;;21.20;99.90;;;;;;5051814;28;20943;-79
2023/07/26 12:41:42;;;;;;;3.27;2.33;;;21.50;99.90;;;;;;5050337;28;20623;-80
2023/07/26 12:44:08;;;;;;;4.70;2.60;;;21.70;99.90;;;;;;5050608;28;21170;-80
2023/07/26 12:46:35;;;;;;;3.30;2.03;;;22.00;99.90;;;;;;5050455;28;20646;-79
2023/07/26 12:49:01;;;;;;;3.03;1.87;;;22.30;99.90;;;;;;5049656;28;20971;-79
2023/07/26 12:51:28;;;;;;;3.00;1.90;;;22.60;99.90;;;;;;5050791;28;20631;-79